Погода Аттардна неделю

Аура, Мальта

27 февраля-04 марта
  • 27февраля
    Сегодня
    +15°
    +20°
    Облачно с прояснениями
    ВремяПогодаТемператураВлажностьДавлениеВетер, м/сВероятность осадков
    01:00Облачно с прояснениями+15°C82 %752 мм4.7 м/с2 %
    04:00Облачно с прояснениями+15°C74 %750 мм6.0 м/с2 %
    07:00Облачно с прояснениями+15°C74 %750 мм5.8 м/с2 %
    10:00Облачно с прояснениями+19°C65 %751 мм7.0 м/с2 %
    13:00Облачно с прояснениями+19°C65 %750 мм6.4 м/с2 %
    16:00Облачно с прояснениями+18°C73 %749 мм7.1 м/с2 %
    19:00Облачно с прояснениями+16°C69 %749 мм6.3 м/с2 %
    22:00Практически безоблачно+16°C68 %749 мм7.2 м/с2 %
  • 28февраля
    Среда
    +12°
    +18°
    Небольшая облачность
    ВремяПогодаТемператураВлажностьДавлениеВетер, м/сВероятность осадков
    01:00Ясно и безоблачно+16°C72 %748 мм6.5 м/с2 %
    04:00Ясно и безоблачно+15°C76 %746 мм6.9 м/с2 %
    07:00Ясно и безоблачно+15°C81 %745 мм5.7 м/с2 %
    10:00Ясно и безоблачно+18°C79 %747 мм6.3 м/с4 %
    13:00Небольшая облачность+16°C75 %748 мм7.8 м/с9 %
    16:00Облачно с прояснениями+15°C75 %748 мм6.9 м/с15 %
    19:00Ясно и безоблачно+13°C77 %749 мм3.5 м/с7 %
    22:00Ясно и безоблачно+13°C78 %751 мм4.4 м/с4 %
  • 29февраля
    Четверг
    +10°
    +18°
    Практически безоблачно
    ВремяПогодаТемператураВлажностьДавлениеВетер, м/сВероятность осадков
    01:00Практически безоблачно+13°C78 %751 мм4.1 м/с4 %
    04:00Практически безоблачно+12°C81 %749 мм3.4 м/с4 %
    07:00Практически безоблачно+13°C82 %750 мм3.9 м/с6 %
    10:00Практически безоблачно+16°C66 %750 мм5.5 м/с11 %
    13:00Практически безоблачно+17°C65 %750 мм6.0 м/с30 %
    16:00Практически безоблачно+17°C64 %749 мм5.5 м/с33 %
    19:00Небольшая облачность+14°C71 %749 мм4.1 м/с21 %
    22:00Облачно с прояснениями+13°C70 %749 мм5.1 м/с35 %
  • 01марта
    Пятница
    +12°
    +17°
    Небольшая облачность
    ВремяПогодаТемператураВлажностьДавлениеВетер, м/сВероятность осадков
    01:00Пасмурно, небольшой дождь+12°C79 %748 мм5.1 м/с51 %
    04:00Небольшая облачность, ливень+11°C86 %747 мм3.2 м/с57 %
    07:00Ясно и безоблачно+11°C86 %748 мм3.3 м/с38 %
    10:00Небольшая облачность+15°C73 %750 мм5.0 м/с11 %
    13:00Небольшая облачность+17°C72 %751 мм5.4 м/с9 %
    16:00Небольшая облачность, ливень+16°C74 %752 мм5.6 м/с12 %
    19:00Ясно и безоблачно+14°C75 %754 мм4.1 м/с7 %
    22:00Ясно и безоблачно+13°C82 %755 мм4.4 м/с11 %
  • 02марта
    Суббота
    +10°
    +18°
    Небольшая облачность
    ВремяПогодаТемператураВлажностьДавлениеВетер, м/сВероятность осадков
    01:00Практически безоблачно+13°C82 %755 мм4.9 м/с18 %
    04:00Практически безоблачно+13°C80 %755 мм5.3 м/с20 %
    07:00Ясно и безоблачно+12°C79 %756 мм4.9 м/с24 %
    10:00Практически безоблачно+16°C73 %757 мм6.6 м/с8 %
    13:00Небольшая облачность+17°C67 %757 мм7.1 м/с5 %
    16:00Ясно и безоблачно+16°C69 %757 мм6.7 м/с2 %
    19:00Ясно и безоблачно+14°C72 %758 мм4.5 м/с2 %
    22:00Ясно и безоблачно+12°C77 %758 мм4.1 м/с2 %
Мы используем cookies
Соглашаюсь